Time;durP1;ratioP1;P1;durP2;ratioP2;P2;SDS_P1;SDS_P2;PMS_P1;PMS_P2;Temp;Humidity;BMP_temperature;BMP_pressure;BME280_temperature;BME280_humidity;BME280_pressure;Samples;Min_cycle;Max_cycle;Signal;HPM_P1;HPM_P2
2023/12/08 00:01:54;;;;;;;59.10;19.42;;;;;;;;;;6218452;28;20055;-78
2023/12/08 00:04:56;;;;;;;21.35;8.63;;;;;;;;;;6226801;28;20050;-77
2023/12/08 00:07:57;;;;;;;23.92;9.10;;;;;;;;;;6225426;28;20034;-76
2023/12/08 00:10:59;;;;;;;23.80;8.70;;;;;;;;;;6199296;28;20174;-76
2023/12/08 00:14:02;;;;;;;41.63;15.65;;;;;;;;;;6226617;28;20030;-79
2023/12/08 00:17:04;;;;;;;18.40;8.93;;;;;;;;;;6222508;28;20044;-77
2023/12/08 00:20:06;;;;;;;60.07;20.23;;;;;;;;;;6224803;28;20346;-78
2023/12/08 00:23:09;;;;;;;22.05;9.23;;;;;;;;;;6204277;28;20045;-76
2023/12/08 00:26:12;;;;;;;19.17;9.07;;;;;;;;;;6223896;28;20056;-76
2023/12/08 00:29:14;;;;;;;92.47;30.35;;;;;;;;;;6216028;28;20578;-79
2023/12/08 00:32:16;;;;;;;23.77;9.38;;;;;;;;;;6216372;28;20052;-78
2023/12/08 00:35:18;;;;;;;19.10;8.68;;;;;;;;;;6220277;28;20049;-79
2023/12/08 00:38:20;;;;;;;25.00;11.05;;;;;;;;;;6215029;28;20050;-80
2023/12/08 00:41:24;;;;;;;21.40;8.98;;;;;;;;;;6218427;28;20042;-78
2023/12/08 00:44:25;;;;;;;41.15;14.18;;;;;;;;;;6218445;28;20195;-78
2023/12/08 00:47:27;;;;;;;45.28;15.55;;;;;;;;;;6199380;28;20540;-76
2023/12/08 00:50:30;;;;;;;21.58;8.90;;;;;;;;;;6215674;28;20042;-79
2023/12/08 00:53:32;;;;;;;22.50;9.27;;;;;;;;;;6214828;28;20066;-77
2023/12/08 00:56:34;;;;;;;24.15;9.68;;;;;;;;;;6223964;28;20084;-79
2023/12/08 00:59:36;;;;;;;18.02;8.43;;;;;;;;;;6222300;28;20174;-78
2023/12/08 01:02:38;;;;;;;50.95;15.80;;;;;;;;;;6216479;28;20114;-78
2023/12/08 01:05:39;;;;;;;21.67;9.20;;;;;;;;;;6216657;28;20105;-78
2023/12/08 01:08:41;;;;;;;31.10;12.18;;;;;;;;;;6204349;28;20053;-77
2023/12/08 01:11:43;;;;;;;65.45;18.08;;;;;;;;;;6215146;28;20042;-78
2023/12/08 01:14:45;;;;;;;20.00;8.98;;;;;;;;;;6211411;28;20456;-79
2023/12/08 01:17:46;;;;;;;17.98;7.95;;;;;;;;;;6207050;28;20065;-77
2023/12/08 01:20:49;;;;;;;22.70;9.77;;;;;;;;;;6214575;28;20049;-77
2023/12/08 01:23:50;;;;;;;50.15;15.95;;;;;;;;;;6215845;28;20046;-79
2023/12/08 01:26:52;;;;;;;67.15;20.35;;;;;;;;;;6215535;28;20049;-77
2023/12/08 01:29:55;;;;;;;64.03;19.63;;;;;;;;;;6212935;28;20046;-78
2023/12/08 01:32:56;;;;;;;22.85;9.07;;;;;;;;;;6209541;28;20054;-77
2023/12/08 01:35:58;;;;;;;19.63;8.88;;;;;;;;;;6215607;28;20046;-78
2023/12/08 01:39:20;;;;;;;19.55;9.48;;;;;;;;;;6190670;28;20046;-77
2023/12/08 01:42:22;;;;;;;17.20;8.55;;;;;;;;;;6214798;28;20040;-77
2023/12/08 01:45:24;;;;;;;18.33;7.75;;;;;;;;;;6200318;28;20071;-78
2023/12/08 01:48:26;;;;;;;18.20;8.32;;;;;;;;;;6216876;28;20050;-77
2023/12/08 01:51:28;;;;;;;18.25;8.13;;;;;;;;;;6211739;28;20061;-76
2023/12/08 01:54:30;;;;;;;18.33;8.50;;;;;;;;;;6207833;28;20049;-78
2023/12/08 01:57:32;;;;;;;18.70;8.35;;;;;;;;;;6213540;28;20053;-78
2023/12/08 02:00:33;;;;;;;18.20;9.75;;;;;;;;;;6218154;28;20065;-77
2023/12/08 02:03:36;;;;;;;24.40;10.00;;;;;;;;;;6217155;28;20049;-78
2023/12/08 02:06:39;;;;;;;19.67;8.32;;;;;;;;;;6221498;28;20127;-79
2023/12/08 02:09:41;;;;;;;16.52;7.88;;;;;;;;;;6202535;28;20060;-79
2023/12/08 02:12:43;;;;;;;19.02;9.10;;;;;;;;;;6202616;28;20061;-77
2023/12/08 02:15:46;;;;;;;17.92;8.43;;;;;;;;;;6217246;28;20054;-78
2023/12/08 02:18:48;;;;;;;20.10;9.38;;;;;;;;;;6217937;28;20046;-80
2023/12/08 02:21:50;;;;;;;25.92;10.50;;;;;;;;;;6216214;28;20046;-80
2023/12/08 02:24:52;;;;;;;24.50;9.93;;;;;;;;;;6216426;28;20049;-77
2023/12/08 02:27:54;;;;;;;17.88;9.02;;;;;;;;;;6213217;28;20049;-79
2023/12/08 02:30:57;;;;;;;20.85;8.13;;;;;;;;;;6217820;28;20046;-76
2023/12/08 02:34:00;;;;;;;17.92;8.93;;;;;;;;;;6216830;28;20053;-77
2023/12/08 02:37:03;;;;;;;19.02;8.63;;;;;;;;;;6205851;28;20054;-76
2023/12/08 02:40:06;;;;;;;19.65;9.20;;;;;;;;;;6214366;28;20049;-78
2023/12/08 02:43:09;;;;;;;21.27;9.10;;;;;;;;;;6219247;28;20046;-77
2023/12/08 02:46:11;;;;;;;15.37;8.50;;;;;;;;;;6217085;28;20061;-80
2023/12/08 02:49:12;;;;;;;17.05;8.57;;;;;;;;;;6218199;28;20476;-76
2023/12/08 02:52:14;;;;;;;17.77;8.18;;;;;;;;;;6214759;28;20476;-80
2023/12/08 02:55:16;;;;;;;20.63;9.05;;;;;;;;;;6216081;28;20229;-79
2023/12/08 02:58:18;;;;;;;19.67;8.70;;;;;;;;;;6212163;28;20053;-79
2023/12/08 03:01:20;;;;;;;15.85;8.38;;;;;;;;;;6218215;28;20077;-79
2023/12/08 03:04:22;;;;;;;20.73;9.55;;;;;;;;;;6224827;28;20038;-80
2023/12/08 03:07:23;;;;;;;18.30;8.23;;;;;;;;;;6201199;28;20046;-79
2023/12/08 03:10:25;;;;;;;19.83;8.82;;;;;;;;;;6232111;28;20721;-79
2023/12/08 03:13:27;;;;;;;23.67;10.30;;;;;;;;;;6214905;28;20060;-78
2023/12/08 03:16:29;;;;;;;23.15;9.40;;;;;;;;;;6201386;28;20045;-78
2023/12/08 03:19:31;;;;;;;17.58;8.57;;;;;;;;;;6218222;28;20046;-80
2023/12/08 03:22:32;;;;;;;22.52;9.65;;;;;;;;;;6212906;28;20088;-79
2023/12/08 03:25:34;;;;;;;22.77;9.30;;;;;;;;;;6218479;28;20058;-79
2023/12/08 03:28:36;;;;;;;20.98;9.48;;;;;;;;;;6217291;28;20060;-77
2023/12/08 03:31:37;;;;;;;20.33;8.80;;;;;;;;;;6206216;28;20117;-78
2023/12/08 03:34:39;;;;;;;21.33;8.50;;;;;;;;;;6213656;28;20351;-79
2023/12/08 03:37:41;;;;;;;18.17;9.18;;;;;;;;;;6211620;28;20053;-78
2023/12/08 03:40:43;;;;;;;23.65;9.10;;;;;;;;;;6195220;28;20273;-78
2023/12/08 03:43:45;;;;;;;20.52;9.32;;;;;;;;;;6215457;28;20050;-77
2023/12/08 03:46:47;;;;;;;19.58;9.43;;;;;;;;;;6214733;28;20050;-77
2023/12/08 03:49:48;;;;;;;24.52;10.02;;;;;;;;;;6195112;28;20068;-77
2023/12/08 03:52:54;;;;;;;18.35;9.07;;;;;;;;;;6191660;28;20336;-77
2023/12/08 03:55:56;;;;;;;20.70;9.18;;;;;;;;;;6209463;28;20052;-75
2023/12/08 03:58:58;;;;;;;21.35;10.50;;;;;;;;;;6210485;28;20049;-77
2023/12/08 04:01:59;;;;;;;20.95;9.32;;;;;;;;;;6200374;28;20061;-78
2023/12/08 04:05:02;;;;;;;18.27;9.43;;;;;;;;;;6212817;28;20206;-75
2023/12/08 04:08:04;;;;;;;19.10;8.95;;;;;;;;;;6206741;28;20073;-76
2023/12/08 04:11:06;;;;;;;22.77;9.65;;;;;;;;;;6199186;28;20054;-77
2023/12/08 04:14:08;;;;;;;37.10;12.70;;;;;;;;;;6209549;28;20060;-77
2023/12/08 04:17:09;;;;;;;22.25;10.18;;;;;;;;;;6209067;28;20383;-77
2023/12/08 04:20:11;;;;;;;23.52;10.52;;;;;;;;;;6208517;28;20046;-76
2023/12/08 04:23:13;;;;;;;20.48;9.98;;;;;;;;;;6205769;28;20054;-79
2023/12/08 04:26:16;;;;;;;18.73;9.10;;;;;;;;;;6209349;28;20056;-76
2023/12/08 04:29:18;;;;;;;26.45;10.88;;;;;;;;;;6207063;28;20053;-77
2023/12/08 04:32:20;;;;;;;24.20;11.02;;;;;;;;;;6205636;28;20050;-77
2023/12/08 04:35:23;;;;;;;24.38;10.93;;;;;;;;;;6209021;28;20673;-74
2023/12/08 04:38:24;;;;;;;22.63;10.25;;;;;;;;;;6203222;28;21544;-77
2023/12/08 04:41:26;;;;;;;23.08;11.20;;;;;;;;;;6210612;28;20492;-77
2023/12/08 04:44:28;;;;;;;24.15;10.23;;;;;;;;;;6214215;28;20496;-78
2023/12/08 04:47:30;;;;;;;21.60;10.23;;;;;;;;;;6207947;28;20050;-76
2023/12/08 04:50:32;;;;;;;22.63;9.43;;;;;;;;;;6211861;28;20045;-78
2023/12/08 04:53:33;;;;;;;25.80;11.70;;;;;;;;;;6186725;28;20050;-76
2023/12/08 04:56:35;;;;;;;20.17;9.77;;;;;;;;;;6210141;28;20714;-77
2023/12/08 04:59:37;;;;;;;20.58;9.82;;;;;;;;;;6212087;28;20050;-79
2023/12/08 05:02:39;;;;;;;22.13;9.87;;;;;;;;;;6210423;28;20160;-79
2023/12/08 05:05:41;;;;;;;23.40;10.85;;;;;;;;;;6217261;28;20046;-78
2023/12/08 05:08:43;;;;;;;26.27;10.35;;;;;;;;;;6217662;28;20049;-77
2023/12/08 05:11:45;;;;;;;25.23;10.43;;;;;;;;;;6215978;28;20049;-79
2023/12/08 05:14:47;;;;;;;23.38;9.82;;;;;;;;;;6215081;28;20045;-78
2023/12/08 05:17:49;;;;;;;43.33;17.25;;;;;;;;;;6212849;28;20105;-79
2023/12/08 05:20:51;;;;;;;33.33;15.60;;;;;;;;;;6214689;28;20397;-80
2023/12/08 05:23:53;;;;;;;26.05;11.95;;;;;;;;;;6213826;28;20061;-79
2023/12/08 05:26:55;;;;;;;28.92;12.95;;;;;;;;;;6213236;28;20113;-79
2023/12/08 05:29:57;;;;;;;28.25;11.60;;;;;;;;;;6230228;28;20551;-76
2023/12/08 05:32:59;;;;;;;29.00;12.50;;;;;;;;;;6186537;28;20069;-78
2023/12/08 05:36:01;;;;;;;26.90;13.25;;;;;;;;;;6215662;28;20400;-78
2023/12/08 05:39:07;;;;;;;29.88;13.15;;;;;;;;;;6209758;28;20424;-79
2023/12/08 05:42:09;;;;;;;32.80;13.13;;;;;;;;;;6219558;28;20042;-79
2023/12/08 05:45:11;;;;;;;25.40;11.75;;;;;;;;;;6219772;28;20495;-79
2023/12/08 05:48:13;;;;;;;28.73;12.27;;;;;;;;;;6188574;28;20053;-78
2023/12/08 05:51:14;;;;;;;27.90;12.52;;;;;;;;;;6217005;28;20061;-77
2023/12/08 05:54:16;;;;;;;29.60;13.60;;;;;;;;;;6233181;28;20046;-77
2023/12/08 05:57:18;;;;;;;28.02;12.05;;;;;;;;;;6222401;28;20064;-77
2023/12/08 06:00:20;;;;;;;28.58;11.90;;;;;;;;;;6223773;28;20045;-78
2023/12/08 06:03:22;;;;;;;26.10;12.32;;;;;;;;;;6216135;28;20057;-78
2023/12/08 06:06:24;;;;;;;33.50;12.10;;;;;;;;;;6208116;28;20050;-79
2023/12/08 06:09:26;;;;;;;32.22;12.45;;;;;;;;;;6202765;28;20745;-80
2023/12/08 06:12:28;;;;;;;26.60;11.93;;;;;;;;;;6214152;28;20046;-79
2023/12/08 06:15:30;;;;;;;32.70;14.75;;;;;;;;;;6214323;28;20056;-78
2023/12/08 06:18:32;;;;;;;29.98;13.38;;;;;;;;;;6218831;28;20061;-78
2023/12/08 06:21:33;;;;;;;31.48;14.48;;;;;;;;;;6219996;28;20117;-78
2023/12/08 06:24:35;;;;;;;34.67;14.05;;;;;;;;;;6215311;28;20156;-78
2023/12/08 06:27:37;;;;;;;27.95;13.98;;;;;;;;;;6217989;28;20061;-79
2023/12/08 06:30:39;;;;;;;32.38;13.35;;;;;;;;;;6212620;28;20050;-79
2023/12/08 06:33:41;;;;;;;35.78;14.45;;;;;;;;;;6218152;28;20087;-79
2023/12/08 06:36:46;;;;;;;29.98;13.80;;;;;;;;;;6219096;28;20117;-79
2023/12/08 06:39:48;;;;;;;32.95;14.90;;;;;;;;;;6205839;28;20043;-78
2023/12/08 06:42:50;;;;;;;102.47;39.35;;;;;;;;;;6212507;28;20046;-78
2023/12/08 06:45:51;;;;;;;35.75;14.52;;;;;;;;;;6210856;28;20412;-79
2023/12/08 06:48:53;;;;;;;30.95;13.93;;;;;;;;;;6215424;28;20046;-78
2023/12/08 06:51:56;;;;;;;37.70;15.85;;;;;;;;;;6213906;28;20074;-80
2023/12/08 06:54:57;;;;;;;33.05;14.63;;;;;;;;;;6216460;28;20411;-78
2023/12/08 06:57:59;;;;;;;35.33;14.70;;;;;;;;;;6216258;28;20056;-78
2023/12/08 07:01:01;;;;;;;39.60;14.80;;;;;;;;;;6214286;28;20049;-79
2023/12/08 07:04:03;;;;;;;41.30;16.60;;;;;;;;;;6213593;28;20072;-79
2023/12/08 07:07:05;;;;;;;38.53;16.03;;;;;;;;;;6210410;28;20064;-78
2023/12/08 07:10:07;;;;;;;31.02;13.27;;;;;;;;;;6217942;28;20049;-77
2023/12/08 07:13:09;;;;;;;35.25;15.05;;;;;;;;;;6214513;28;20045;-75
2023/12/08 07:16:12;;;;;;;46.30;17.33;;;;;;;;;;6217766;28;20049;-77
2023/12/08 07:19:14;;;;;;;37.58;15.70;;;;;;;;;;6210024;28;20062;-77
2023/12/08 07:22:16;;;;;;;39.22;17.23;;;;;;;;;;6194955;28;20049;-77
2023/12/08 07:25:23;;;;;;;34.80;15.43;;;;;;;;;;6204260;28;20049;-80
2023/12/08 07:28:27;;;;;;;34.17;15.07;;;;;;;;;;6212127;28;20042;-78
2023/12/08 07:31:29;;;;;;;41.83;15.55;;;;;;;;;;6208827;28;20049;-77
2023/12/08 07:34:31;;;;;;;38.38;14.63;;;;;;;;;;6199720;28;20496;-78
2023/12/08 07:37:33;;;;;;;31.23;14.15;;;;;;;;;;6208343;28;20111;-78
2023/12/08 07:40:35;;;;;;;34.88;16.20;;;;;;;;;;6215528;28;20050;-77
2023/12/08 07:43:36;;;;;;;31.75;14.27;;;;;;;;;;6208422;28;20057;-78
2023/12/08 07:46:38;;;;;;;127.95;38.75;;;;;;;;;;6210655;28;20057;-76
2023/12/08 07:49:40;;;;;;;40.83;16.63;;;;;;;;;;6214969;28;20046;-78
2023/12/08 07:52:42;;;;;;;37.25;14.18;;;;;;;;;;6210236;28;20064;-77
2023/12/08 07:55:44;;;;;;;40.47;15.95;;;;;;;;;;6212169;28;20085;-77
2023/12/08 07:58:45;;;;;;;31.50;13.80;;;;;;;;;;6213698;28;20585;-77
2023/12/08 08:01:47;;;;;;;33.13;13.80;;;;;;;;;;6209785;28;20053;-79
2023/12/08 08:04:49;;;;;;;42.58;16.15;;;;;;;;;;6201234;28;20550;-80
2023/12/08 08:07:51;;;;;;;27.85;12.65;;;;;;;;;;6194330;28;20158;-80
2023/12/08 08:10:53;;;;;;;30.67;13.57;;;;;;;;;;6206024;28;20049;-79
2023/12/08 08:13:55;;;;;;;36.33;13.38;;;;;;;;;;6206398;28;20431;-78
2023/12/08 08:16:56;;;;;;;35.40;14.43;;;;;;;;;;6203191;28;20042;-79
2023/12/08 08:19:58;;;;;;;242.88;56.58;;;;;;;;;;6205729;28;20762;-77
2023/12/08 08:23:00;;;;;;;40.40;17.67;;;;;;;;;;6201968;28;20050;-79
2023/12/08 08:26:02;;;;;;;96.50;28.98;;;;;;;;;;6206090;28;20163;-80
2023/12/08 08:29:05;;;;;;;31.27;14.52;;;;;;;;;;6205574;28;20049;-78
2023/12/08 08:32:07;;;;;;;40.03;15.48;;;;;;;;;;6204691;28;20053;-79
2023/12/08 08:35:09;;;;;;;36.55;14.23;;;;;;;;;;6174913;28;20046;-78
2023/12/08 08:38:11;;;;;;;35.47;14.50;;;;;;;;;;6201251;28;20107;-79
2023/12/08 08:41:13;;;;;;;47.47;18.48;;;;;;;;;;6182063;28;20070;-78
2023/12/08 08:44:16;;;;;;;;;;;;;;;;;;6206366;28;20057;-79
2023/12/08 08:47:19;;;;;;;42.22;16.00;;;;;;;;;;6203494;28;19925;-78
2023/12/08 08:50:22;;;;;;;32.50;13.70;;;;;;;;;;6205895;28;20095;-80
2023/12/08 08:53:24;;;;;;;35.13;14.93;;;;;;;;;;6202053;28;20427;-79
2023/12/08 08:56:26;;;;;;;38.58;16.10;;;;;;;;;;6201726;28;20057;-78
2023/12/08 08:59:27;;;;;;;40.15;15.90;;;;;;;;;;6198284;28;20060;-79
2023/12/08 09:02:29;;;;;;;36.15;14.48;;;;;;;;;;6204602;28;20037;-79
2023/12/08 09:05:34;;;;;;;37.42;15.20;;;;;;;;;;6204152;28;20048;-80
2023/12/08 09:08:35;;;;;;;26.90;12.57;;;;;;;;;;6180186;28;20049;-80
2023/12/08 09:11:38;;;;;;;35.15;13.55;;;;;;;;;;6206020;28;20059;-79
2023/12/08 09:14:40;;;;;;;36.65;14.00;;;;;;;;;;6206700;28;20066;-79
2023/12/08 09:17:42;;;;;;;30.55;12.55;;;;;;;;;;6208228;28;20050;-77
2023/12/08 09:20:45;;;;;;;29.98;12.43;;;;;;;;;;6207658;28;20042;-77
2023/12/08 09:23:46;;;;;;;37.20;14.07;;;;;;;;;;6216249;28;20124;-79
2023/12/08 09:26:48;;;;;;;32.95;13.15;;;;;;;;;;6200723;28;20776;-79
2023/12/08 09:29:50;;;;;;;34.10;13.52;;;;;;;;;;6204176;28;20049;-80
2023/12/08 09:32:52;;;;;;;31.95;14.60;;;;;;;;;;6205786;28;20046;-78
2023/12/08 09:35:55;;;;;;;34.50;14.43;;;;;;;;;;6212556;28;20184;-80
2023/12/08 09:38:57;;;;;;;32.38;13.98;;;;;;;;;;6204351;28;20049;-80
2023/12/08 09:42:03;;;;;;;37.08;15.13;;;;;;;;;;6191302;28;20047;-79
2023/12/08 09:45:05;;;;;;;33.47;15.77;;;;;;;;;;6178929;28;20129;-76
2023/12/08 09:48:07;;;;;;;33.50;13.73;;;;;;;;;;6200443;28;20077;-77
2023/12/08 09:51:10;;;;;;;36.92;13.02;;;;;;;;;;6202161;28;20519;-79
2023/12/08 09:54:12;;;;;;;33.00;14.55;;;;;;;;;;6198926;28;20061;-78
2023/12/08 09:57:15;;;;;;;38.30;16.38;;;;;;;;;;6212227;28;20117;-78
2023/12/08 10:00:20;;;;;;;46.92;17.10;;;;;;;;;;6208976;28;20058;-78
2023/12/08 10:03:22;;;;;;;36.92;17.33;;;;;;;;;;6204744;28;20045;-79
2023/12/08 10:06:28;;;;;;;38.50;17.55;;;;;;;;;;6206525;28;20044;-81
2023/12/08 10:09:30;;;;;;;37.15;16.13;;;;;;;;;;6201246;28;20060;-78
2023/12/08 10:12:32;;;;;;;39.20;15.90;;;;;;;;;;6203966;28;20045;-80
2023/12/08 10:15:34;;;;;;;38.38;15.27;;;;;;;;;;6203732;28;20054;-78
2023/12/08 10:18:37;;;;;;;35.60;13.90;;;;;;;;;;6205979;28;20057;-81
2023/12/08 10:21:39;;;;;;;35.20;14.40;;;;;;;;;;6203990;28;20137;-77
2023/12/08 10:24:42;;;;;;;34.10;13.30;;;;;;;;;;6206543;28;20045;-76
2023/12/08 10:27:51;;;;;;;40.95;16.17;;;;;;;;;;6206683;28;20052;-77
2023/12/08 10:30:53;;;;;;;34.58;16.38;;;;;;;;;;6207753;28;20042;-77
2023/12/08 10:33:55;;;;;;;32.40;14.23;;;;;;;;;;6190561;28;20471;-78
2023/12/08 10:36:58;;;;;;;32.00;14.82;;;;;;;;;;6198273;28;20518;-76
2023/12/08 10:40:00;;;;;;;32.00;13.38;;;;;;;;;;6206504;28;20046;-78
2023/12/08 10:43:01;;;;;;;37.55;16.23;;;;;;;;;;6203511;28;20061;-79
2023/12/08 10:46:03;;;;;;;28.27;12.27;;;;;;;;;;6195441;28;20050;-80
2023/12/08 10:49:06;;;;;;;39.85;15.85;;;;;;;;;;6204531;28;20124;-79
2023/12/08 10:52:09;;;;;;;37.35;15.23;;;;;;;;;;6205598;28;20056;-79
2023/12/08 10:55:10;;;;;;;37.58;15.52;;;;;;;;;;6207588;28;20093;-80
2023/12/08 10:58:15;;;;;;;36.55;14.98;;;;;;;;;;6197897;28;20046;-79
2023/12/08 11:01:18;;;;;;;36.63;14.15;;;;;;;;;;6203649;28;20046;-77
2023/12/08 11:04:26;;;;;;;33.63;13.88;;;;;;;;;;6205710;28;20097;-79
2023/12/08 11:07:32;;;;;;;33.50;13.25;;;;;;;;;;6205797;28;20053;-78
2023/12/08 11:10:37;;;;;;;33.05;13.18;;;;;;;;;;6188297;28;20092;-80
2023/12/08 11:13:45;;;;;;;32.08;13.10;;;;;;;;;;6208670;28;20046;-80
2023/12/08 11:16:57;;;;;;;31.52;13.02;;;;;;;;;;6188566;28;20046;-79
2023/12/08 11:19:59;;;;;;;31.80;12.93;;;;;;;;;;6193441;28;20078;-79
2023/12/08 11:23:01;;;;;;;30.90;12.90;;;;;;;;;;6205104;28;20107;-80
2023/12/08 11:26:19;;;;;;;30.55;12.00;;;;;;;;;;6205087;28;20050;-77
2023/12/08 11:29:57;;;;;;;35.42;13.70;;;;;;;;;;6205969;28;20038;-76
2023/12/08 11:33:05;;;;;;;31.58;12.88;;;;;;;;;;6206212;28;20044;-78
2023/12/08 11:36:10;;;;;;;40.47;15.75;;;;;;;;;;6204260;28;21596;-77
2023/12/08 11:42:34;;;;;;;36.17;13.77;;;;;;;;;;6135769;28;20039;-86
2023/12/08 11:45:36;;;;;;;39.63;14.93;;;;;;;;;;6159425;28;20051;-86
2023/12/08 11:48:37;;;;;;;37.10;14.82;;;;;;;;;;6156583;28;20135;-87
2023/12/08 11:51:39;;;;;;;46.55;20.95;;;;;;;;;;6158216;28;20134;-84
2023/12/08 11:55:02;;;;;;;41.60;17.92;;;;;;;;;;6155930;28;20620;-84
2023/12/08 11:58:11;;;;;;;36.58;14.68;;;;;;;;;;6150498;28;20046;-86
2023/12/08 12:01:13;;;;;;;39.72;15.77;;;;;;;;;;6163066;28;20053;-87
2023/12/08 12:04:17;;;;;;;;;;;;;;;;;;6133677;28;20043;-86
2023/12/08 12:07:22;;;;;;;189.68;76.05;;;;;;;;;;6142076;28;20065;-85
2023/12/08 12:10:28;;;;;;;97.40;38.35;;;;;;;;;;6142344;28;20054;-84
2023/12/08 12:13:32;;;;;;;98.28;39.17;;;;;;;;;;6150676;28;20050;-87
2023/12/08 12:16:34;;;;;;;66.03;25.58;;;;;;;;;;6159655;28;20054;-86
2023/12/08 12:19:36;;;;;;;59.63;24.25;;;;;;;;;;6183688;28;20055;-86
2023/12/08 12:22:39;;;;;;;67.40;25.15;;;;;;;;;;6176068;28;20102;-85
2023/12/08 12:25:41;;;;;;;162.73;94.03;;;;;;;;;;6171608;28;20051;-84
2023/12/08 12:28:43;;;;;;;81.30;35.65;;;;;;;;;;6145896;28;20054;-86
2023/12/08 12:31:46;;;;;;;65.82;25.38;;;;;;;;;;6162043;28;20066;-83
2023/12/08 12:34:47;;;;;;;73.43;31.33;;;;;;;;;;6158273;28;20438;-85
2023/12/08 12:37:49;;;;;;;49.00;19.98;;;;;;;;;;6156592;28;20050;-85
2023/12/08 12:40:55;;;;;;;50.20;20.85;;;;;;;;;;6165792;28;20381;-85
2023/12/08 12:43:57;;;;;;;45.45;20.85;;;;;;;;;;6135932;28;20047;-83
2023/12/08 12:46:59;;;;;;;52.00;23.42;;;;;;;;;;6147525;28;20055;-84
2023/12/08 12:50:06;;;;;;;44.65;16.30;;;;;;;;;;6159771;28;20571;-84
2023/12/08 12:53:07;;;;;;;45.00;17.45;;;;;;;;;;6157638;28;20047;-84
2023/12/08 12:56:09;;;;;;;38.17;16.45;;;;;;;;;;6132941;28;20414;-85
2023/12/08 12:59:11;;;;;;;34.30;13.73;;;;;;;;;;6133257;28;20050;-85
2023/12/08 13:02:13;;;;;;;39.65;14.75;;;;;;;;;;6137949;28;20501;-84
2023/12/08 13:05:15;;;;;;;44.03;14.30;;;;;;;;;;6130498;28;20051;-84
2023/12/08 13:08:17;;;;;;;36.25;13.55;;;;;;;;;;6153390;28;20055;-84
2023/12/08 13:11:19;;;;;;;39.40;13.90;;;;;;;;;;6138584;28;20050;-83
2023/12/08 13:14:21;;;;;;;31.95;12.15;;;;;;;;;;6152529;28;20050;-85
2023/12/08 13:17:22;;;;;;;34.67;12.50;;;;;;;;;;6149171;28;20102;-84
2023/12/08 13:20:24;;;;;;;28.23;12.15;;;;;;;;;;6153340;28;20046;-85
2023/12/08 13:23:26;;;;;;;39.45;13.50;;;;;;;;;;6153187;28;20050;-83
2023/12/08 13:26:28;;;;;;;33.03;12.07;;;;;;;;;;6154219;28;20457;-85
2023/12/08 13:29:29;;;;;;;37.58;13.45;;;;;;;;;;6154421;28;20133;-84
2023/12/08 13:32:32;;;;;;;36.35;13.00;;;;;;;;;;6156416;28;20113;-84
2023/12/08 13:35:35;;;;;;;33.70;10.70;;;;;;;;;;6160135;28;20159;-84
2023/12/08 13:38:37;;;;;;;36.47;13.45;;;;;;;;;;6158874;28;20050;-85
2023/12/08 13:41:38;;;;;;;37.15;13.18;;;;;;;;;;6170243;28;20047;-84
2023/12/08 13:44:40;;;;;;;37.33;14.02;;;;;;;;;;6172229;28;20043;-84
2023/12/08 13:47:42;;;;;;;46.40;18.50;;;;;;;;;;6158840;28;20062;-84
2023/12/08 13:50:44;;;;;;;33.53;14.02;;;;;;;;;;6141660;28;20375;-83
2023/12/08 13:54:03;;;;;;;36.85;14.25;;;;;;;;;;6156592;28;20047;-84
2023/12/08 13:57:05;;;;;;;32.33;12.30;;;;;;;;;;6141970;28;20387;-83
2023/12/08 14:00:07;;;;;;;39.55;13.88;;;;;;;;;;6155139;28;20053;-82
2023/12/08 14:03:09;;;;;;;49.33;16.25;;;;;;;;;;6162908;28;20056;-82
2023/12/08 14:06:11;;;;;;;70.55;20.90;;;;;;;;;;6159005;28;20535;-83
2023/12/08 14:09:14;;;;;;;60.95;20.92;;;;;;;;;;6156238;28;20201;-83
2023/12/08 14:12:15;;;;;;;121.07;32.40;;;;;;;;;;6146994;28;20073;-83
2023/12/08 14:15:17;;;;;;;45.42;14.65;;;;;;;;;;6153197;28;20061;-82
2023/12/08 14:18:19;;;;;;;35.58;12.85;;;;;;;;;;6156057;28;20050;-83
2023/12/08 14:21:21;;;;;;;43.10;14.90;;;;;;;;;;6157878;28;20042;-82
2023/12/08 14:24:23;;;;;;;43.83;15.57;;;;;;;;;;6153268;28;20086;-83
2023/12/08 14:27:25;;;;;;;46.25;17.02;;;;;;;;;;6151314;28;21154;-83
2023/12/08 14:30:27;;;;;;;47.28;15.73;;;;;;;;;;6157999;28;20085;-83
2023/12/08 14:33:29;;;;;;;42.88;15.57;;;;;;;;;;6139969;28;20057;-82
2023/12/08 14:36:31;;;;;;;50.35;17.25;;;;;;;;;;6151051;28;20053;-82
2023/12/08 14:39:33;;;;;;;47.55;16.00;;;;;;;;;;6150533;28;20049;-81
2023/12/08 14:42:34;;;;;;;82.38;23.50;;;;;;;;;;6138818;28;20050;-82
2023/12/08 14:45:36;;;;;;;60.78;18.55;;;;;;;;;;6138499;28;20341;-83
2023/12/08 14:48:38;;;;;;;64.60;20.92;;;;;;;;;;6152430;28;20066;-84
2023/12/08 14:51:40;;;;;;;71.60;19.48;;;;;;;;;;6155218;28;20051;-79
2023/12/08 14:54:41;;;;;;;55.97;18.63;;;;;;;;;;6156335;28;20058;-82
2023/12/08 14:57:44;;;;;;;88.28;25.15;;;;;;;;;;6149490;28;20540;-83
2023/12/08 15:00:46;;;;;;;38.78;14.43;;;;;;;;;;6159262;28;20057;-84
2023/12/08 15:03:48;;;;;;;41.45;13.77;;;;;;;;;;6155640;28;20043;-81
2023/12/08 15:06:50;;;;;;;39.63;13.73;;;;;;;;;;6154977;28;20163;-84
2023/12/08 15:09:51;;;;;;;39.03;12.80;;;;;;;;;;6139583;28;20099;-82
2023/12/08 15:12:53;;;;;;;42.28;14.18;;;;;;;;;;6152186;28;20047;-83
2023/12/08 15:15:55;;;;;;;46.08;14.63;;;;;;;;;;6152795;28;20058;-85
2023/12/08 15:18:57;;;;;;;67.00;18.85;;;;;;;;;;6138555;28;20046;-82
2023/12/08 15:22:02;;;;;;;58.70;17.17;;;;;;;;;;6152048;28;20039;-83
2023/12/08 15:25:04;;;;;;;51.78;17.40;;;;;;;;;;6139578;28;20047;-83
2023/12/08 15:28:10;;;;;;;46.40;15.98;;;;;;;;;;6158410;28;20059;-81
2023/12/08 15:31:12;;;;;;;52.42;17.35;;;;;;;;;;6134794;28;20133;-82
2023/12/08 15:34:17;;;;;;;46.85;16.02;;;;;;;;;;6153263;28;20054;-81
2023/12/08 15:37:20;;;;;;;63.42;18.52;;;;;;;;;;6126843;28;20074;-82
2023/12/08 15:40:22;;;;;;;59.30;17.45;;;;;;;;;;6153802;28;20043;-81
2023/12/08 15:43:23;;;;;;;96.60;27.10;;;;;;;;;;6156519;28;20409;-81
2023/12/08 15:46:26;;;;;;;84.38;24.80;;;;;;;;;;6144271;28;20512;-82
2023/12/08 15:49:28;;;;;;;61.25;15.70;;;;;;;;;;6169702;28;20054;-81
2023/12/08 15:52:30;;;;;;;50.83;15.57;;;;;;;;;;6154154;28;20195;-81
2023/12/08 15:55:32;;;;;;;55.38;15.77;;;;;;;;;;6161912;28;20046;-82
2023/12/08 15:58:34;;;;;;;47.37;15.07;;;;;;;;;;6157624;28;20039;-82
2023/12/08 16:01:36;;;;;;;51.08;16.13;;;;;;;;;;6142660;28;20059;-82
2023/12/08 16:04:40;;;;;;;46.10;15.32;;;;;;;;;;6159396;28;20055;-82
2023/12/08 16:07:42;;;;;;;53.50;16.65;;;;;;;;;;6138479;28;20121;-82
2023/12/08 16:10:44;;;;;;;49.63;17.48;;;;;;;;;;6158684;28;20053;-82
2023/12/08 16:13:46;;;;;;;51.35;18.38;;;;;;;;;;6157400;28;20145;-81
2023/12/08 16:16:49;;;;;;;53.83;20.85;;;;;;;;;;6152807;28;20051;-80
2023/12/08 16:19:50;;;;;;;59.37;20.87;;;;;;;;;;6159639;28;20062;-82
2023/12/08 16:22:52;;;;;;;83.32;24.27;;;;;;;;;;6140849;28;20132;-80
2023/12/08 16:26:00;;;;;;;54.40;16.85;;;;;;;;;;6166779;28;20067;-82
2023/12/08 16:29:02;;;;;;;51.20;16.55;;;;;;;;;;6178229;28;20035;-82
2023/12/08 16:32:06;;;;;;;106.53;28.73;;;;;;;;;;6171668;28;20050;-82
2023/12/08 16:35:08;;;;;;;;;;;;;;;;;;6160119;28;20050;-82
2023/12/08 16:38:10;;;;;;;53.35;16.42;;;;;;;;;;6153012;28;19922;-81
2023/12/08 16:41:11;;;;;;;78.82;23.02;;;;;;;;;;6152131;28;20043;-80
2023/12/08 16:44:13;;;;;;;119.95;32.05;;;;;;;;;;6157785;28;20050;-81
2023/12/08 16:47:15;;;;;;;56.95;19.40;;;;;;;;;;6151196;28;20039;-80
2023/12/08 16:50:17;;;;;;;60.45;19.80;;;;;;;;;;6151826;28;20047;-80
2023/12/08 16:53:25;;;;;;;90.80;28.75;;;;;;;;;;6148840;28;20129;-80
2023/12/08 16:56:27;;;;;;;103.15;36.20;;;;;;;;;;6130919;28;20055;-79
2023/12/08 16:59:32;;;;;;;123.55;41.17;;;;;;;;;;6151626;28;20762;-80
2023/12/08 17:02:34;;;;;;;62.70;20.85;;;;;;;;;;6136214;28;20050;-80
2023/12/08 17:05:36;;;;;;;52.60;16.90;;;;;;;;;;6137357;28;20153;-80
2023/12/08 17:08:38;;;;;;;57.55;19.02;;;;;;;;;;6147313;28;20043;-80
2023/12/08 17:11:39;;;;;;;73.82;21.65;;;;;;;;;;6153103;28;20051;-79
2023/12/08 17:14:41;;;;;;;59.85;18.65;;;;;;;;;;6136204;28;20079;-80
2023/12/08 17:17:43;;;;;;;59.42;18.13;;;;;;;;;;6136868;28;20416;-80
2023/12/08 17:20:45;;;;;;;66.35;18.42;;;;;;;;;;6137152;28;20046;-81
2023/12/08 17:23:48;;;;;;;59.05;17.35;;;;;;;;;;6137330;28;20059;-80
2023/12/08 17:26:52;;;;;;;86.28;24.10;;;;;;;;;;6154021;28;20086;-81
2023/12/08 17:29:54;;;;;;;79.05;22.00;;;;;;;;;;6155339;28;20042;-80
2023/12/08 17:32:56;;;;;;;68.47;19.75;;;;;;;;;;6152847;28;20042;-80
2023/12/08 17:35:58;;;;;;;62.13;19.65;;;;;;;;;;6138494;28;20627;-80
2023/12/08 17:39:00;;;;;;;56.28;19.85;;;;;;;;;;6146004;28;20050;-81
2023/12/08 17:42:02;;;;;;;64.38;21.50;;;;;;;;;;6145649;28;20055;-80
2023/12/08 17:45:04;;;;;;;79.37;25.40;;;;;;;;;;6138594;28;20074;-81
2023/12/08 17:48:06;;;;;;;53.50;17.33;;;;;;;;;;6152908;28;20466;-81
2023/12/08 17:51:10;;;;;;;63.30;18.93;;;;;;;;;;6155719;28;20502;-82